sensor_id;sensor_type;location;lat;lon;timestamp;P1;durP1;ratioP1;P2;durP2;ratioP2
7523;SDS011;3803;51.666;7.630;2023-04-06T00:00:04;18.87;;;10.67;;
7523;SDS011;3803;51.666;7.630;2023-04-06T00:00:29;19.75;;;10.85;;
7523;SDS011;3803;51.666;7.630;2023-04-06T00:00:50;17.55;;;11.10;;
7523;SDS011;3803;51.666;7.630;2023-04-06T00:01:12;18.40;;;11.32;;
7523;SDS011;3803;51.666;7.630;2023-04-06T00:01:32;20.25;;;11.60;;
7523;SDS011;3803;51.666;7.630;2023-04-06T00:01:54;20.60;;;11.52;;
7523;SDS011;3803;51.666;7.630;2023-04-06T00:02:15;21.27;;;11.75;;
7523;SDS011;3803;51.666;7.630;2023-04-06T00:02:36;19.48;;;11.23;;
7523;SDS011;3803;51.666;7.630;2023-04-06T00:02:56;18.95;;;11.40;;
7523;SDS011;3803;51.666;7.630;2023-04-06T00:03:17;19.90;;;11.15;;
7523;SDS011;3803;51.666;7.630;2023-04-06T00:03:38;18.05;;;10.65;;
7523;SDS011;3803;51.666;7.630;2023-04-06T00:03:59;18.08;;;10.60;;
7523;SDS011;3803;51.666;7.630;2023-04-06T00:04:19;15.85;;;10.20;;
7523;SDS011;3803;51.666;7.630;2023-04-06T00:04:40;15.50;;;10.45;;
7523;SDS011;3803;51.666;7.630;2023-04-06T00:05:01;16.95;;;10.70;;
7523;SDS011;3803;51.666;7.630;2023-04-06T00:05:22;16.87;;;10.83;;
7523;SDS011;3803;51.666;7.630;2023-04-06T00:05:43;16.60;;;10.80;;
7523;SDS011;3803;51.666;7.630;2023-04-06T00:06:04;16.35;;;10.88;;
7523;SDS011;3803;51.666;7.630;2023-04-06T00:06:24;17.85;;;11.00;;
7523;SDS011;3803;51.666;7.630;2023-04-06T00:06:45;18.95;;;11.10;;
7523;SDS011;3803;51.666;7.630;2023-04-06T00:07:06;18.70;;;11.00;;
7523;SDS011;3803;51.666;7.630;2023-04-06T00:07:27;17.13;;;10.88;;
7523;SDS011;3803;51.666;7.630;2023-04-06T00:07:48;15.52;;;10.18;;
7523;SDS011;3803;51.666;7.630;2023-04-06T00:08:09;14.43;;;9.80;;
7523;SDS011;3803;51.666;7.630;2023-04-06T00:08:30;16.40;;;10.30;;
7523;SDS011;3803;51.666;7.630;2023-04-06T00:08:51;17.50;;;10.70;;
7523;SDS011;3803;51.666;7.630;2023-04-06T00:09:12;18.77;;;10.93;;
7523;SDS011;3803;51.666;7.630;2023-04-06T00:09:32;17.83;;;10.75;;
7523;SDS011;3803;51.666;7.630;2023-04-06T00:09:53;17.88;;;10.68;;
7523;SDS011;3803;51.666;7.630;2023-04-06T00:10:14;17.10;;;10.30;;
7523;SDS011;3803;51.666;7.630;2023-04-06T00:10:36;15.95;;;9.90;;
7523;SDS011;3803;51.666;7.630;2023-04-06T00:10:56;15.73;;;10.10;;
7523;SDS011;3803;51.666;7.630;2023-04-06T00:11:17;16.17;;;10.70;;
7523;SDS011;3803;51.666;7.630;2023-04-06T00:11:38;16.60;;;10.88;;
7523;SDS011;3803;51.666;7.630;2023-04-06T00:11:59;15.38;;;10.27;;
7523;SDS011;3803;51.666;7.630;2023-04-06T00:12:20;15.63;;;9.70;;
7523;SDS011;3803;51.666;7.630;2023-04-06T00:12:41;16.90;;;9.50;;
7523;SDS011;3803;51.666;7.630;2023-04-06T00:13:01;17.75;;;9.90;;
7523;SDS011;3803;51.666;7.630;2023-04-06T00:13:22;19.35;;;10.55;;
7523;SDS011;3803;51.666;7.630;2023-04-06T00:13:43;19.70;;;11.03;;
7523;SDS011;3803;51.666;7.630;2023-04-06T00:14:03;20.57;;;11.40;;
7523;SDS011;3803;51.666;7.630;2023-04-06T00:14:24;19.17;;;10.85;;
7523;SDS011;3803;51.666;7.630;2023-04-06T00:14:45;19.15;;;10.80;;
7523;SDS011;3803;51.666;7.630;2023-04-06T00:15:06;17.55;;;10.52;;
7523;SDS011;3803;51.666;7.630;2023-04-06T00:15:27;18.23;;;10.70;;
7523;SDS011;3803;51.666;7.630;2023-04-06T00:15:48;18.75;;;10.60;;
7523;SDS011;3803;51.666;7.630;2023-04-06T00:16:08;19.20;;;10.60;;
7523;SDS011;3803;51.666;7.630;2023-04-06T00:16:29;18.73;;;10.77;;
7523;SDS011;3803;51.666;7.630;2023-04-06T00:16:53;17.95;;;11.05;;
7523;SDS011;3803;51.666;7.630;2023-04-06T00:17:15;16.60;;;11.00;;
7523;SDS011;3803;51.666;7.630;2023-04-06T00:17:36;16.07;;;10.97;;
7523;SDS011;3803;51.666;7.630;2023-04-06T00:17:56;16.60;;;10.47;;
7523;SDS011;3803;51.666;7.630;2023-04-06T00:18:17;17.92;;;10.70;;
7523;SDS011;3803;51.666;7.630;2023-04-06T00:18:38;17.25;;;10.48;;
7523;SDS011;3803;51.666;7.630;2023-04-06T00:18:59;17.70;;;10.68;;
7523;SDS011;3803;51.666;7.630;2023-04-06T00:19:20;16.92;;;10.23;;
7523;SDS011;3803;51.666;7.630;2023-04-06T00:19:41;18.70;;;10.30;;
7523;SDS011;3803;51.666;7.630;2023-04-06T00:20:01;19.38;;;10.68;;
7523;SDS011;3803;51.666;7.630;2023-04-06T00:20:23;19.38;;;11.00;;
7523;SDS011;3803;51.666;7.630;2023-04-06T00:20:44;17.60;;;11.13;;
7523;SDS011;3803;51.666;7.630;2023-04-06T00:21:04;16.73;;;11.02;;
7523;SDS011;3803;51.666;7.630;2023-04-06T00:21:25;17.33;;;11.18;;
7523;SDS011;3803;51.666;7.630;2023-04-06T00:21:46;17.27;;;10.90;;
7523;SDS011;3803;51.666;7.630;2023-04-06T00:22:07;16.90;;;10.60;;
7523;SDS011;3803;51.666;7.630;2023-04-06T00:22:28;15.52;;;10.30;;
7523;SDS011;3803;51.666;7.630;2023-04-06T00:22:49;16.48;;;10.63;;
7523;SDS011;3803;51.666;7.630;2023-04-06T00:23:09;19.10;;;10.70;;
7523;SDS011;3803;51.666;7.630;2023-04-06T00:23:30;19.23;;;10.90;;
7523;SDS011;3803;51.666;7.630;2023-04-06T00:23:51;19.40;;;10.82;;
7523;SDS011;3803;51.666;7.630;2023-04-06T00:24:11;17.70;;;10.95;;
7523;SDS011;3803;51.666;7.630;2023-04-06T00:24:32;18.05;;;10.95;;
7523;SDS011;3803;51.666;7.630;2023-04-06T00:24:53;17.60;;;11.17;;
7523;SDS011;3803;51.666;7.630;2023-04-06T00:25:13;17.67;;;11.23;;
7523;SDS011;3803;51.666;7.630;2023-04-06T00:25:35;17.58;;;11.48;;
7523;SDS011;3803;51.666;7.630;2023-04-06T00:25:56;17.30;;;11.55;;
7523;SDS011;3803;51.666;7.630;2023-04-06T00:26:17;15.63;;;11.10;;
7523;SDS011;3803;51.666;7.630;2023-04-06T00:26:44;16.40;;;11.20;;
7523;SDS011;3803;51.666;7.630;2023-04-06T00:27:04;15.60;;;10.52;;
7523;SDS011;3803;51.666;7.630;2023-04-06T00:27:25;15.73;;;10.50;;
7523;SDS011;3803;51.666;7.630;2023-04-06T00:27:46;14.20;;;10.03;;
7523;SDS011;3803;51.666;7.630;2023-04-06T00:28:06;16.05;;;10.00;;
7523;SDS011;3803;51.666;7.630;2023-04-06T00:28:28;18.70;;;10.40;;
7523;SDS011;3803;51.666;7.630;2023-04-06T00:28:50;20.35;;;10.75;;
7523;SDS011;3803;51.666;7.630;2023-04-06T00:29:12;18.65;;;10.48;;
7523;SDS011;3803;51.666;7.630;2023-04-06T00:29:33;17.42;;;10.30;;
7523;SDS011;3803;51.666;7.630;2023-04-06T00:29:54;16.63;;;10.38;;
7523;SDS011;3803;51.666;7.630;2023-04-06T00:30:15;17.30;;;10.52;;
7523;SDS011;3803;51.666;7.630;2023-04-06T00:30:36;17.13;;;10.60;;
7523;SDS011;3803;51.666;7.630;2023-04-06T00:31:02;17.40;;;10.52;;
7523;SDS011;3803;51.666;7.630;2023-04-06T00:31:22;15.27;;;10.43;;
7523;SDS011;3803;51.666;7.630;2023-04-06T00:31:43;16.52;;;10.32;;
7523;SDS011;3803;51.666;7.630;2023-04-06T00:32:04;16.98;;;10.35;;
7523;SDS011;3803;51.666;7.630;2023-04-06T00:32:25;16.92;;;10.40;;
7523;SDS011;3803;51.666;7.630;2023-04-06T00:32:46;16.42;;;10.35;;
7523;SDS011;3803;51.666;7.630;2023-04-06T00:33:07;16.30;;;10.43;;
7523;SDS011;3803;51.666;7.630;2023-04-06T00:33:27;17.45;;;10.70;;
7523;SDS011;3803;51.666;7.630;2023-04-06T00:33:48;15.83;;;10.50;;
7523;SDS011;3803;51.666;7.630;2023-04-06T00:34:09;16.25;;;10.20;;
7523;SDS011;3803;51.666;7.630;2023-04-06T00:34:30;17.98;;;10.40;;
7523;SDS011;3803;51.666;7.630;2023-04-06T00:34:51;18.90;;;10.75;;
7523;SDS011;3803;51.666;7.630;2023-04-06T00:35:11;18.33;;;11.02;;
7523;SDS011;3803;51.666;7.630;2023-04-06T00:35:32;17.75;;;11.23;;
7523;SDS011;3803;51.666;7.630;2023-04-06T00:35:53;19.55;;;11.50;;
7523;SDS011;3803;51.666;7.630;2023-04-06T00:36:15;19.77;;;11.48;;
7523;SDS011;3803;51.666;7.630;2023-04-06T00:36:36;19.33;;;11.20;;
7523;SDS011;3803;51.666;7.630;2023-04-06T00:36:56;17.10;;;11.07;;
7523;SDS011;3803;51.666;7.630;2023-04-06T00:37:17;16.92;;;11.20;;
7523;SDS011;3803;51.666;7.630;2023-04-06T00:37:39;16.20;;;10.80;;
7523;SDS011;3803;51.666;7.630;2023-04-06T00:38:00;16.52;;;10.80;;
7523;SDS011;3803;51.666;7.630;2023-04-06T00:38:21;16.85;;;10.65;;
7523;SDS011;3803;51.666;7.630;2023-04-06T00:38:42;17.45;;;10.90;;
7523;SDS011;3803;51.666;7.630;2023-04-06T00:39:02;16.90;;;10.60;;
7523;SDS011;3803;51.666;7.630;2023-04-06T00:39:23;15.88;;;10.35;;
7523;SDS011;3803;51.666;7.630;2023-04-06T00:39:44;15.00;;;10.27;;
7523;SDS011;3803;51.666;7.630;2023-04-06T00:40:05;15.17;;;10.13;;
7523;SDS011;3803;51.666;7.630;2023-04-06T00:40:26;15.15;;;10.13;;
7523;SDS011;3803;51.666;7.630;2023-04-06T00:40:48;15.18;;;9.55;;
7523;SDS011;3803;51.666;7.630;2023-04-06T00:41:10;17.23;;;10.20;;
7523;SDS011;3803;51.666;7.630;2023-04-06T00:41:31;16.55;;;10.30;;
7523;SDS011;3803;51.666;7.630;2023-04-06T00:41:52;17.37;;;10.83;;
7523;SDS011;3803;51.666;7.630;2023-04-06T00:42:13;16.25;;;10.02;;
7523;SDS011;3803;51.666;7.630;2023-04-06T00:42:34;16.67;;;10.10;;
7523;SDS011;3803;51.666;7.630;2023-04-06T00:42:56;17.17;;;10.00;;
7523;SDS011;3803;51.666;7.630;2023-04-06T00:43:16;18.60;;;10.80;;
7523;SDS011;3803;51.666;7.630;2023-04-06T00:43:38;20.35;;;10.85;;
7523;SDS011;3803;51.666;7.630;2023-04-06T00:43:59;19.48;;;11.23;;
7523;SDS011;3803;51.666;7.630;2023-04-06T00:44:20;17.90;;;10.80;;
7523;SDS011;3803;51.666;7.630;2023-04-06T00:44:41;16.83;;;10.63;;
7523;SDS011;3803;51.666;7.630;2023-04-06T00:45:02;17.02;;;10.60;;
7523;SDS011;3803;51.666;7.630;2023-04-06T00:45:22;15.80;;;10.25;;
7523;SDS011;3803;51.666;7.630;2023-04-06T00:45:46;17.52;;;9.90;;
7523;SDS011;3803;51.666;7.630;2023-04-06T00:46:07;16.73;;;9.95;;
7523;SDS011;3803;51.666;7.630;2023-04-06T00:46:28;18.10;;;10.35;;
7523;SDS011;3803;51.666;7.630;2023-04-06T00:46:48;17.83;;;10.90;;
7523;SDS011;3803;51.666;7.630;2023-04-06T00:47:09;18.05;;;10.90;;
7523;SDS011;3803;51.666;7.630;2023-04-06T00:47:30;18.00;;;10.98;;
7523;SDS011;3803;51.666;7.630;2023-04-06T00:47:51;16.85;;;10.90;;
7523;SDS011;3803;51.666;7.630;2023-04-06T00:48:11;16.98;;;10.90;;
7523;SDS011;3803;51.666;7.630;2023-04-06T00:48:33;16.95;;;10.88;;
7523;SDS011;3803;51.666;7.630;2023-04-06T00:48:54;16.67;;;10.80;;
7523;SDS011;3803;51.666;7.630;2023-04-06T00:49:14;17.00;;;10.50;;
7523;SDS011;3803;51.666;7.630;2023-04-06T00:49:35;15.95;;;9.93;;
7523;SDS011;3803;51.666;7.630;2023-04-06T00:49:56;17.60;;;9.97;;
7523;SDS011;3803;51.666;7.630;2023-04-06T00:50:17;17.73;;;10.10;;
7523;SDS011;3803;51.666;7.630;2023-04-06T00:50:38;18.40;;;10.80;;
7523;SDS011;3803;51.666;7.630;2023-04-06T00:50:59;16.60;;;10.90;;
7523;SDS011;3803;51.666;7.630;2023-04-06T00:51:19;18.53;;;11.17;;
7523;SDS011;3803;51.666;7.630;2023-04-06T00:51:40;18.70;;;11.00;;
7523;SDS011;3803;51.666;7.630;2023-04-06T00:52:01;20.30;;;11.25;;
7523;SDS011;3803;51.666;7.630;2023-04-06T00:52:22;19.30;;;10.90;;
7523;SDS011;3803;51.666;7.630;2023-04-06T00:52:43;18.42;;;11.10;;
7523;SDS011;3803;51.666;7.630;2023-04-06T00:53:04;17.05;;;10.50;;
7523;SDS011;3803;51.666;7.630;2023-04-06T00:53:25;16.73;;;10.70;;
7523;SDS011;3803;51.666;7.630;2023-04-06T00:53:47;15.45;;;10.10;;
7523;SDS011;3803;51.666;7.630;2023-04-06T00:54:08;17.17;;;10.60;;
7523;SDS011;3803;51.666;7.630;2023-04-06T00:54:30;18.17;;;10.85;;
7523;SDS011;3803;51.666;7.630;2023-04-06T00:54:52;21.20;;;11.70;;
7523;SDS011;3803;51.666;7.630;2023-04-06T00:55:14;21.15;;;11.65;;
7523;SDS011;3803;51.666;7.630;2023-04-06T00:55:38;18.52;;;11.30;;
7523;SDS011;3803;51.666;7.630;2023-04-06T00:55:59;19.55;;;11.00;;
7523;SDS011;3803;51.666;7.630;2023-04-06T00:56:20;18.65;;;10.80;;
7523;SDS011;3803;51.666;7.630;2023-04-06T00:56:45;18.08;;;10.73;;
7523;SDS011;3803;51.666;7.630;2023-04-06T00:57:06;14.93;;;10.35;;
7523;SDS011;3803;51.666;7.630;2023-04-06T00:57:26;15.45;;;10.60;;
7523;SDS011;3803;51.666;7.630;2023-04-06T00:57:49;16.08;;;10.60;;
7523;SDS011;3803;51.666;7.630;2023-04-06T00:58:11;18.00;;;10.98;;
7523;SDS011;3803;51.666;7.630;2023-04-06T00:58:40;18.80;;;11.15;;
7523;SDS011;3803;51.666;7.630;2023-04-06T00:59:02;18.40;;;11.30;;
7523;SDS011;3803;51.666;7.630;2023-04-06T00:59:23;19.17;;;11.32;;
7523;SDS011;3803;51.666;7.630;2023-04-06T00:59:45;17.98;;;10.63;;
7523;SDS011;3803;51.666;7.630;2023-04-06T01:00:07;16.95;;;10.07;;
7523;SDS011;3803;51.666;7.630;2023-04-06T01:00:29;16.60;;;10.43;;
7523;SDS011;3803;51.666;7.630;2023-04-06T01:00:53;19.05;;;11.18;;
7523;SDS011;3803;51.666;7.630;2023-04-06T01:01:16;19.10;;;11.60;;
7523;SDS011;3803;51.666;7.630;2023-04-06T01:01:37;18.98;;;11.93;;
7523;SDS011;3803;51.666;7.630;2023-04-06T01:02:09;19.17;;;11.90;;
7523;SDS011;3803;51.666;7.630;2023-04-06T01:02:36;18.90;;;11.52;;
7523;SDS011;3803;51.666;7.630;2023-04-06T01:02:57;18.10;;;11.27;;
7523;SDS011;3803;51.666;7.630;2023-04-06T01:03:26;16.95;;;11.30;;
7523;SDS011;3803;51.666;7.630;2023-04-06T01:03:47;18.38;;;11.93;;
7523;SDS011;3803;51.666;7.630;2023-04-06T01:04:11;18.65;;;12.10;;
7523;SDS011;3803;51.666;7.630;2023-04-06T01:04:35;16.58;;;11.60;;
7523;SDS011;3803;51.666;7.630;2023-04-06T01:04:57;17.23;;;11.77;;
7523;SDS011;3803;51.666;7.630;2023-04-06T01:05:28;18.35;;;11.40;;
7523;SDS011;3803;51.666;7.630;2023-04-06T01:05:51;19.23;;;11.70;;
7523;SDS011;3803;51.666;7.630;2023-04-06T01:06:19;19.13;;;11.65;;
7523;SDS011;3803;51.666;7.630;2023-04-06T01:06:59;21.73;;;11.40;;
7523;SDS011;3803;51.666;7.630;2023-04-06T01:07:27;20.45;;;11.40;;
7523;SDS011;3803;51.666;7.630;2023-04-06T01:07:59;16.88;;;11.10;;
7523;SDS011;3803;51.666;7.630;2023-04-06T01:08:22;18.50;;;11.93;;
7523;SDS011;3803;51.666;7.630;2023-04-06T01:08:47;18.67;;;12.30;;
7523;SDS011;3803;51.666;7.630;2023-04-06T01:09:12;18.17;;;12.35;;
7523;SDS011;3803;51.666;7.630;2023-04-06T01:09:33;18.70;;;11.85;;
7523;SDS011;3803;51.666;7.630;2023-04-06T01:09:58;20.27;;;11.48;;
7523;SDS011;3803;51.666;7.630;2023-04-06T01:10:24;20.98;;;11.70;;
7523;SDS011;3803;51.666;7.630;2023-04-06T01:10:49;20.92;;;11.77;;
7523;SDS011;3803;51.666;7.630;2023-04-06T01:11:22;17.30;;;12.20;;
7523;SDS011;3803;51.666;7.630;2023-04-06T01:11:44;17.98;;;12.70;;
7523;SDS011;3803;51.666;7.630;2023-04-06T01:12:09;19.33;;;12.68;;
7523;SDS011;3803;51.666;7.630;2023-04-06T01:12:30;18.77;;;11.43;;
7523;SDS011;3803;51.666;7.630;2023-04-06T01:12:52;20.67;;;11.55;;
7523;SDS011;3803;51.666;7.630;2023-04-06T01:13:30;21.08;;;12.15;;
7523;SDS011;3803;51.666;7.630;2023-04-06T01:13:57;18.10;;;11.85;;
7523;SDS011;3803;51.666;7.630;2023-04-06T01:14:36;17.27;;;11.93;;
7523;SDS011;3803;51.666;7.630;2023-04-06T01:14:57;18.33;;;12.18;;
7523;SDS011;3803;51.666;7.630;2023-04-06T01:15:20;19.25;;;12.38;;
7523;SDS011;3803;51.666;7.630;2023-04-06T01:15:44;17.75;;;12.10;;
7523;SDS011;3803;51.666;7.630;2023-04-06T01:16:10;17.48;;;11.80;;
7523;SDS011;3803;51.666;7.630;2023-04-06T01:16:44;17.02;;;11.77;;
7523;SDS011;3803;51.666;7.630;2023-04-06T01:17:10;17.23;;;11.70;;
7523;SDS011;3803;51.666;7.630;2023-04-06T01:17:31;17.65;;;11.45;;
7523;SDS011;3803;51.666;7.630;2023-04-06T01:17:59;17.90;;;11.20;;
7523;SDS011;3803;51.666;7.630;2023-04-06T01:18:25;18.50;;;11.52;;
7523;SDS011;3803;51.666;7.630;2023-04-06T01:19:57;17.13;;;11.10;;
7523;SDS011;3803;51.666;7.630;2023-04-06T01:20:23;16.30;;;10.90;;
7523;SDS011;3803;51.666;7.630;2023-04-06T01:20:44;17.10;;;11.20;;
7523;SDS011;3803;51.666;7.630;2023-04-06T01:21:05;19.02;;;11.60;;
7523;SDS011;3803;51.666;7.630;2023-04-06T01:21:26;19.20;;;11.75;;
7523;SDS011;3803;51.666;7.630;2023-04-06T01:22:16;17.55;;;11.75;;
7523;SDS011;3803;51.666;7.630;2023-04-06T01:22:44;18.70;;;11.88;;
7523;SDS011;3803;51.666;7.630;2023-04-06T01:23:08;19.30;;;11.50;;
7523;SDS011;3803;51.666;7.630;2023-04-06T01:23:31;17.77;;;11.00;;
7523;SDS011;3803;51.666;7.630;2023-04-06T01:23:52;19.10;;;11.70;;
7523;SDS011;3803;51.666;7.630;2023-04-06T01:24:20;18.08;;;11.68;;
7523;SDS011;3803;51.666;7.630;2023-04-06T01:25:02;16.95;;;10.98;;
7523;SDS011;3803;51.666;7.630;2023-04-06T01:25:42;18.02;;;10.60;;
7523;SDS011;3803;51.666;7.630;2023-04-06T01:26:03;18.63;;;11.00;;
7523;SDS011;3803;51.666;7.630;2023-04-06T01:26:24;19.05;;;11.52;;
7523;SDS011;3803;51.666;7.630;2023-04-06T01:26:47;17.83;;;11.68;;
7523;SDS011;3803;51.666;7.630;2023-04-06T01:27:08;17.75;;;11.55;;
7523;SDS011;3803;51.666;7.630;2023-04-06T01:27:43;18.85;;;11.30;;
7523;SDS011;3803;51.666;7.630;2023-04-06T01:28:22;18.25;;;11.50;;
7523;SDS011;3803;51.666;7.630;2023-04-06T01:29:09;18.13;;;11.20;;
7523;SDS011;3803;51.666;7.630;2023-04-06T01:29:30;18.47;;;10.80;;
7523;SDS011;3803;51.666;7.630;2023-04-06T01:29:51;19.88;;;11.00;;
7523;SDS011;3803;51.666;7.630;2023-04-06T01:30:44;19.33;;;11.30;;
7523;SDS011;3803;51.666;7.630;2023-04-06T01:31:16;21.27;;;11.75;;
7523;SDS011;3803;51.666;7.630;2023-04-06T01:31:43;19.85;;;11.75;;
7523;SDS011;3803;51.666;7.630;2023-04-06T01:32:04;18.45;;;11.48;;
7523;SDS011;3803;51.666;7.630;2023-04-06T01:32:29;19.33;;;11.52;;
7523;SDS011;3803;51.666;7.630;2023-04-06T01:32:51;19.02;;;11.55;;
7523;SDS011;3803;51.666;7.630;2023-04-06T01:33:21;16.95;;;11.40;;
7523;SDS011;3803;51.666;7.630;2023-04-06T01:33:55;16.50;;;11.10;;
7523;SDS011;3803;51.666;7.630;2023-04-06T01:34:19;18.15;;;11.00;;
7523;SDS011;3803;51.666;7.630;2023-04-06T01:34:40;19.33;;;11.13;;
7523;SDS011;3803;51.666;7.630;2023-04-06T01:35:01;18.38;;;11.40;;
7523;SDS011;3803;51.666;7.630;2023-04-06T01:35:23;19.63;;;11.85;;
7523;SDS011;3803;51.666;7.630;2023-04-06T01:35:54;18.98;;;11.70;;
7523;SDS011;3803;51.666;7.630;2023-04-06T01:36:15;19.57;;;11.67;;
7523;SDS011;3803;51.666;7.630;2023-04-06T01:36:37;18.95;;;11.68;;
7523;SDS011;3803;51.666;7.630;2023-04-06T01:37:13;19.35;;;11.70;;
7523;SDS011;3803;51.666;7.630;2023-04-06T01:37:34;20.10;;;11.57;;
7523;SDS011;3803;51.666;7.630;2023-04-06T01:37:58;17.75;;;11.00;;
7523;SDS011;3803;51.666;7.630;2023-04-06T01:38:24;19.45;;;11.27;;
7523;SDS011;3803;51.666;7.630;2023-04-06T01:38:45;18.98;;;11.50;;
7523;SDS011;3803;51.666;7.630;2023-04-06T01:39:08;18.35;;;11.95;;
7523;SDS011;3803;51.666;7.630;2023-04-06T01:39:31;17.80;;;11.50;;
7523;SDS011;3803;51.666;7.630;2023-04-06T01:39:54;15.77;;;11.00;;
7523;SDS011;3803;51.666;7.630;2023-04-06T01:40:29;16.55;;;11.05;;
7523;SDS011;3803;51.666;7.630;2023-04-06T01:40:50;17.80;;;11.27;;
7523;SDS011;3803;51.666;7.630;2023-04-06T01:41:13;19.38;;;12.15;;
7523;SDS011;3803;51.666;7.630;2023-04-06T01:41:45;17.55;;;12.10;;
7523;SDS011;3803;51.666;7.630;2023-04-06T01:42:08;16.98;;;11.63;;
7523;SDS011;3803;51.666;7.630;2023-04-06T01:42:32;17.13;;;11.38;;
7523;SDS011;3803;51.666;7.630;2023-04-06T01:42:52;17.25;;;11.38;;
7523;SDS011;3803;51.666;7.630;2023-04-06T01:43:22;18.73;;;11.80;;
7523;SDS011;3803;51.666;7.630;2023-04-06T01:44:12;17.52;;;11.00;;
7523;SDS011;3803;51.666;7.630;2023-04-06T01:44:34;16.13;;;10.80;;
7523;SDS011;3803;51.666;7.630;2023-04-06T01:45:02;17.10;;;11.70;;
7523;SDS011;3803;51.666;7.630;2023-04-06T01:45:23;18.48;;;11.85;;
7523;SDS011;3803;51.666;7.630;2023-04-06T01:45:45;20.80;;;12.27;;
7523;SDS011;3803;51.666;7.630;2023-04-06T01:46:13;20.15;;;11.80;;
7523;SDS011;3803;51.666;7.630;2023-04-06T01:46:36;18.02;;;11.32;;
7523;SDS011;3803;51.666;7.630;2023-04-06T01:46:58;19.48;;;11.45;;
7523;SDS011;3803;51.666;7.630;2023-04-06T01:47:19;21.30;;;11.60;;
7523;SDS011;3803;51.666;7.630;2023-04-06T01:47:40;22.20;;;11.75;;
7523;SDS011;3803;51.666;7.630;2023-04-06T01:48:02;18.88;;;11.10;;
7523;SDS011;3803;51.666;7.630;2023-04-06T01:48:23;18.15;;;11.20;;
7523;SDS011;3803;51.666;7.630;2023-04-06T01:48:44;18.00;;;11.40;;
7523;SDS011;3803;51.666;7.630;2023-04-06T01:49:13;18.38;;;11.23;;
7523;SDS011;3803;51.666;7.630;2023-04-06T01:49:35;18.42;;;11.20;;
7523;SDS011;3803;51.666;7.630;2023-04-06T01:49:56;18.30;;;11.23;;
7523;SDS011;3803;51.666;7.630;2023-04-06T01:50:17;17.95;;;11.55;;
7523;SDS011;3803;51.666;7.630;2023-04-06T01:50:40;18.75;;;11.57;;
7523;SDS011;3803;51.666;7.630;2023-04-06T01:51:03;19.02;;;11.60;;
7523;SDS011;3803;51.666;7.630;2023-04-06T01:51:27;18.73;;;11.45;;
7523;SDS011;3803;51.666;7.630;2023-04-06T01:51:52;18.88;;;11.98;;
7523;SDS011;3803;51.666;7.630;2023-04-06T01:52:14;17.50;;;11.82;;
7523;SDS011;3803;51.666;7.630;2023-04-06T01:52:39;16.77;;;11.70;;
7523;SDS011;3803;51.666;7.630;2023-04-06T01:53:11;15.45;;;11.05;;
7523;SDS011;3803;51.666;7.630;2023-04-06T01:53:34;17.27;;;11.52;;
7523;SDS011;3803;51.666;7.630;2023-04-06T01:53:59;19.92;;;11.90;;
7523;SDS011;3803;51.666;7.630;2023-04-06T01:54:32;19.17;;;11.30;;
7523;SDS011;3803;51.666;7.630;2023-04-06T01:55:03;16.05;;;11.00;;
7523;SDS011;3803;51.666;7.630;2023-04-06T01:55:56;20.83;;;12.13;;
7523;SDS011;3803;51.666;7.630;2023-04-06T01:56:21;19.17;;;12.23;;
7523;SDS011;3803;51.666;7.630;2023-04-06T01:57:11;20.02;;;11.77;;
7523;SDS011;3803;51.666;7.630;2023-04-06T01:57:36;20.63;;;11.88;;
7523;SDS011;3803;51.666;7.630;2023-04-06T01:58:05;19.38;;;11.60;;
7523;SDS011;3803;51.666;7.630;2023-04-06T01:58:30;19.05;;;11.38;;
7523;SDS011;3803;51.666;7.630;2023-04-06T01:58:51;19.15;;;11.23;;
7523;SDS011;3803;51.666;7.630;2023-04-06T01:59:12;18.27;;;11.30;;
7523;SDS011;3803;51.666;7.630;2023-04-06T01:59:36;19.95;;;12.15;;
7523;SDS011;3803;51.666;7.630;2023-04-06T02:00:02;19.92;;;12.35;;
7523;SDS011;3803;51.666;7.630;2023-04-06T02:00:37;17.52;;;11.80;;
7523;SDS011;3803;51.666;7.630;2023-04-06T02:00:58;18.40;;;11.67;;
7523;SDS011;3803;51.666;7.630;2023-04-06T02:01:22;18.23;;;11.80;;
7523;SDS011;3803;51.666;7.630;2023-04-06T02:01:50;17.60;;;11.80;;
7523;SDS011;3803;51.666;7.630;2023-04-06T02:02:11;17.50;;;11.82;;
7523;SDS011;3803;51.666;7.630;2023-04-06T02:02:33;16.90;;;11.95;;
7523;SDS011;3803;51.666;7.630;2023-04-06T02:02:58;17.98;;;12.10;;
7523;SDS011;3803;51.666;7.630;2023-04-06T02:03:22;18.63;;;11.95;;
7523;SDS011;3803;51.666;7.630;2023-04-06T02:03:49;17.48;;;11.90;;
7523;SDS011;3803;51.666;7.630;2023-04-06T02:04:10;17.55;;;11.90;;
7523;SDS011;3803;51.666;7.630;2023-04-06T02:04:31;19.23;;;12.40;;
7523;SDS011;3803;51.666;7.630;2023-04-06T02:05:01;20.13;;;12.27;;
7523;SDS011;3803;51.666;7.630;2023-04-06T02:05:22;20.10;;;12.20;;
7523;SDS011;3803;51.666;7.630;2023-04-06T02:05:45;21.02;;;12.27;;
7523;SDS011;3803;51.666;7.630;2023-04-06T02:06:15;21.90;;;12.20;;
7523;SDS011;3803;51.666;7.630;2023-04-06T02:06:36;20.77;;;12.27;;
7523;SDS011;3803;51.666;7.630;2023-04-06T02:06:59;18.48;;;11.80;;
7523;SDS011;3803;51.666;7.630;2023-04-06T02:07:22;18.65;;;11.60;;
7523;SDS011;3803;51.666;7.630;2023-04-06T02:07:43;19.53;;;11.73;;
7523;SDS011;3803;51.666;7.630;2023-04-06T02:08:07;19.38;;;11.95;;
7523;SDS011;3803;51.666;7.630;2023-04-06T02:08:31;18.05;;;11.32;;
7523;SDS011;3803;51.666;7.630;2023-04-06T02:08:52;21.05;;;11.70;;
7523;SDS011;3803;51.666;7.630;2023-04-06T02:09:14;21.77;;;12.15;;
7523;SDS011;3803;51.666;7.630;2023-04-06T02:09:35;20.52;;;12.30;;
7523;SDS011;3803;51.666;7.630;2023-04-06T02:09:57;19.27;;;12.27;;
7523;SDS011;3803;51.666;7.630;2023-04-06T02:10:26;19.88;;;12.50;;
7523;SDS011;3803;51.666;7.630;2023-04-06T02:10:47;19.13;;;12.37;;
7523;SDS011;3803;51.666;7.630;2023-04-06T02:11:17;20.55;;;12.25;;
7523;SDS011;3803;51.666;7.630;2023-04-06T02:11:42;19.15;;;11.93;;
7523;SDS011;3803;51.666;7.630;2023-04-06T02:12:03;19.97;;;12.10;;
7523;SDS011;3803;51.666;7.630;2023-04-06T02:12:26;19.05;;;11.75;;
7523;SDS011;3803;51.666;7.630;2023-04-06T02:12:48;18.38;;;11.45;;
7523;SDS011;3803;51.666;7.630;2023-04-06T02:13:15;17.27;;;11.40;;
7523;SDS011;3803;51.666;7.630;2023-04-06T02:13:41;16.90;;;11.48;;
7523;SDS011;3803;51.666;7.630;2023-04-06T02:14:03;16.85;;;12.00;;
7523;SDS011;3803;51.666;7.630;2023-04-06T02:14:27;18.52;;;12.15;;
7523;SDS011;3803;51.666;7.630;2023-04-06T02:14:52;20.23;;;12.88;;
7523;SDS011;3803;51.666;7.630;2023-04-06T02:15:12;20.02;;;12.75;;
7523;SDS011;3803;51.666;7.630;2023-04-06T02:15:33;19.67;;;12.40;;
7523;SDS011;3803;51.666;7.630;2023-04-06T02:15:54;20.33;;;12.20;;
7523;SDS011;3803;51.666;7.630;2023-04-06T02:16:15;19.95;;;11.93;;
7523;SDS011;3803;51.666;7.630;2023-04-06T02:16:37;19.92;;;12.07;;
7523;SDS011;3803;51.666;7.630;2023-04-06T02:16:58;18.25;;;12.02;;
7523;SDS011;3803;51.666;7.630;2023-04-06T02:17:19;18.88;;;12.18;;
7523;SDS011;3803;51.666;7.630;2023-04-06T02:17:40;20.25;;;12.00;;
7523;SDS011;3803;51.666;7.630;2023-04-06T02:18:01;20.45;;;12.07;;
7523;SDS011;3803;51.666;7.630;2023-04-06T02:18:21;19.73;;;12.10;;
7523;SDS011;3803;51.666;7.630;2023-04-06T02:18:42;17.77;;;11.73;;
7523;SDS011;3803;51.666;7.630;2023-04-06T02:19:03;17.10;;;11.20;;
7523;SDS011;3803;51.666;7.630;2023-04-06T02:20:14;16.63;;;11.50;;
7523;SDS011;3803;51.666;7.630;2023-04-06T02:20:35;16.65;;;11.38;;
7523;SDS011;3803;51.666;7.630;2023-04-06T02:20:56;16.58;;;11.00;;
7523;SDS011;3803;51.666;7.630;2023-04-06T02:21:17;17.90;;;11.57;;
7523;SDS011;3803;51.666;7.630;2023-04-06T02:21:40;18.73;;;11.80;;
7523;SDS011;3803;51.666;7.630;2023-04-06T02:22:01;21.50;;;11.75;;
7523;SDS011;3803;51.666;7.630;2023-04-06T02:22:22;21.87;;;11.23;;
7523;SDS011;3803;51.666;7.630;2023-04-06T02:22:43;22.05;;;11.50;;
7523;SDS011;3803;51.666;7.630;2023-04-06T02:23:04;19.27;;;11.95;;